sensor_id;sensor_type;location;lat;lon;timestamp;temperature;humidity
44517;DHT22;30223;17.182;-96.766;2023-05-14T00:00:49;29.10;53.50
44517;DHT22;30223;17.182;-96.766;2023-05-14T00:03:16;29.10;53.50
44517;DHT22;30223;17.182;-96.766;2023-05-14T00:05:43;29.10;53.50
44517;DHT22;30223;17.182;-96.766;2023-05-14T00:08:10;29.10;53.50
44517;DHT22;30223;17.182;-96.766;2023-05-14T00:10:36;29.10;53.50
44517;DHT22;30223;17.182;-96.766;2023-05-14T00:13:03;29.10;53.50
44517;DHT22;30223;17.182;-96.766;2023-05-14T00:15:30;29.00;53.50
44517;DHT22;30223;17.182;-96.766;2023-05-14T00:17:57;29.10;53.50
44517;DHT22;30223;17.182;-96.766;2023-05-14T00:20:24;29.00;53.50
44517;DHT22;30223;17.182;-96.766;2023-05-14T00:22:50;29.00;53.50
44517;DHT22;30223;17.182;-96.766;2023-05-14T00:25:17;29.00;53.50
44517;DHT22;30223;17.182;-96.766;2023-05-14T00:27:44;29.00;53.50
44517;DHT22;30223;17.182;-96.766;2023-05-14T00:30:11;28.90;53.50
44517;DHT22;30223;17.182;-96.766;2023-05-14T00:32:38;28.90;53.60
44517;DHT22;30223;17.182;-96.766;2023-05-14T00:35:05;28.90;53.60
44517;DHT22;30223;17.182;-96.766;2023-05-14T00:37:32;28.90;53.60
44517;DHT22;30223;17.182;-96.766;2023-05-14T00:39:58;28.90;53.50
44517;DHT22;30223;17.182;-96.766;2023-05-14T00:42:25;28.90;53.60
44517;DHT22;30223;17.182;-96.766;2023-05-14T00:44:52;28.90;53.50
44517;DHT22;30223;17.182;-96.766;2023-05-14T00:47:19;28.90;53.50
44517;DHT22;30223;17.182;-96.766;2023-05-14T00:49:46;28.80;53.30
44517;DHT22;30223;17.182;-96.766;2023-05-14T00:52:12;28.80;53.30
44517;DHT22;30223;17.182;-96.766;2023-05-14T00:54:39;28.80;53.40
44517;DHT22;30223;17.182;-96.766;2023-05-14T00:57:06;28.80;53.50
44517;DHT22;30223;17.182;-96.766;2023-05-14T00:59:34;28.80;53.40
44517;DHT22;30223;17.182;-96.766;2023-05-14T01:02:01;28.80;53.40
44517;DHT22;30223;17.182;-96.766;2023-05-14T01:04:28;28.80;53.50
44517;DHT22;30223;17.182;-96.766;2023-05-14T01:09:53;28.70;53.40
44517;DHT22;30223;17.182;-96.766;2023-05-14T01:14:58;28.70;53.50
44517;DHT22;30223;17.182;-96.766;2023-05-14T01:17:29;28.60;53.40
44517;DHT22;30223;17.182;-96.766;2023-05-14T01:19:59;28.60;53.30
44517;DHT22;30223;17.182;-96.766;2023-05-14T01:22:26;28.60;53.30
44517;DHT22;30223;17.182;-96.766;2023-05-14T01:24:52;28.60;53.30
44517;DHT22;30223;17.182;-96.766;2023-05-14T01:30:09;28.60;53.40
44517;DHT22;30223;17.182;-96.766;2023-05-14T01:32:39;28.50;53.40
44517;DHT22;30223;17.182;-96.766;2023-05-14T01:35:09;28.50;53.40
44517;DHT22;30223;17.182;-96.766;2023-05-14T01:37:36;28.50;53.30
44517;DHT22;30223;17.182;-96.766;2023-05-14T01:40:03;28.50;53.40
44517;DHT22;30223;17.182;-96.766;2023-05-14T01:42:30;28.50;53.30
44517;DHT22;30223;17.182;-96.766;2023-05-14T01:44:58;28.40;53.20
44517;DHT22;30223;17.182;-96.766;2023-05-14T01:47:24;28.40;53.20
44517;DHT22;30223;17.182;-96.766;2023-05-14T01:49:51;28.40;53.30
44517;DHT22;30223;17.182;-96.766;2023-05-14T01:52:18;28.40;53.30
44517;DHT22;30223;17.182;-96.766;2023-05-14T01:54:47;28.40;53.30
44517;DHT22;30223;17.182;-96.766;2023-05-14T01:57:13;28.30;53.30
44517;DHT22;30223;17.182;-96.766;2023-05-14T01:59:40;28.30;53.20
44517;DHT22;30223;17.182;-96.766;2023-05-14T02:02:07;28.30;53.20
44517;DHT22;30223;17.182;-96.766;2023-05-14T02:04:33;28.30;53.30
44517;DHT22;30223;17.182;-96.766;2023-05-14T02:07:00;28.30;53.30
44517;DHT22;30223;17.182;-96.766;2023-05-14T02:09:27;28.20;53.20
44517;DHT22;30223;17.182;-96.766;2023-05-14T02:11:54;28.20;53.30
44517;DHT22;30223;17.182;-96.766;2023-05-14T02:14:21;28.20;53.30
44517;DHT22;30223;17.182;-96.766;2023-05-14T02:16:47;28.20;53.30
44517;DHT22;30223;17.182;-96.766;2023-05-14T02:19:16;28.20;53.30
44517;DHT22;30223;17.182;-96.766;2023-05-14T02:21:42;28.20;53.90
44517;DHT22;30223;17.182;-96.766;2023-05-14T02:24:09;28.10;53.20
44517;DHT22;30223;17.182;-96.766;2023-05-14T02:26:36;28.10;53.20
44517;DHT22;30223;17.182;-96.766;2023-05-14T02:29:02;28.10;53.20
44517;DHT22;30223;17.182;-96.766;2023-05-14T02:31:29;28.10;53.20
44517;DHT22;30223;17.182;-96.766;2023-05-14T02:33:56;28.10;53.20
44517;DHT22;30223;17.182;-96.766;2023-05-14T02:36:23;28.10;53.30
44517;DHT22;30223;17.182;-96.766;2023-05-14T02:38:49;28.10;53.20
44517;DHT22;30223;17.182;-96.766;2023-05-14T02:41:19;28.10;53.20
44517;DHT22;30223;17.182;-96.766;2023-05-14T02:43:46;28.10;53.30
44517;DHT22;30223;17.182;-96.766;2023-05-14T02:46:13;28.00;53.30
44517;DHT22;30223;17.182;-96.766;2023-05-14T02:48:40;28.00;53.30
44517;DHT22;30223;17.182;-96.766;2023-05-14T02:51:07;28.00;53.40
44517;DHT22;30223;17.182;-96.766;2023-05-14T02:53:34;28.00;53.40
44517;DHT22;30223;17.182;-96.766;2023-05-14T02:56:01;28.00;53.40
44517;DHT22;30223;17.182;-96.766;2023-05-14T02:58:28;27.90;53.40
44517;DHT22;30223;17.182;-96.766;2023-05-14T03:00:54;27.90;53.40
44517;DHT22;30223;17.182;-96.766;2023-05-14T03:03:21;27.90;53.40
44517;DHT22;30223;17.182;-96.766;2023-05-14T03:05:48;27.90;53.50
44517;DHT22;30223;17.182;-96.766;2023-05-14T03:08:15;27.90;53.50
44517;DHT22;30223;17.182;-96.766;2023-05-14T03:10:41;27.80;53.50
44517;DHT22;30223;17.182;-96.766;2023-05-14T03:13:08;27.80;53.50
44517;DHT22;30223;17.182;-96.766;2023-05-14T03:15:35;27.80;53.60
44517;DHT22;30223;17.182;-96.766;2023-05-14T03:18:02;27.80;53.60
44517;DHT22;30223;17.182;-96.766;2023-05-14T03:20:29;27.70;53.50
44517;DHT22;30223;17.182;-96.766;2023-05-14T03:22:55;27.70;53.50
44517;DHT22;30223;17.182;-96.766;2023-05-14T03:25:22;27.70;53.50
44517;DHT22;30223;17.182;-96.766;2023-05-14T03:27:49;27.60;53.40
44517;DHT22;30223;17.182;-96.766;2023-05-14T03:30:16;27.60;53.40
44517;DHT22;30223;17.182;-96.766;2023-05-14T03:32:43;27.60;53.40
44517;DHT22;30223;17.182;-96.766;2023-05-14T03:35:10;27.60;53.50
44517;DHT22;30223;17.182;-96.766;2023-05-14T03:37:36;27.60;53.50
44517;DHT22;30223;17.182;-96.766;2023-05-14T03:40:04;27.50;53.40
44517;DHT22;30223;17.182;-96.766;2023-05-14T03:42:31;27.50;53.50
44517;DHT22;30223;17.182;-96.766;2023-05-14T03:44:57;27.50;53.50
44517;DHT22;30223;17.182;-96.766;2023-05-14T03:47:26;27.50;53.50
44517;DHT22;30223;17.182;-96.766;2023-05-14T03:49:53;27.50;53.50
44517;DHT22;30223;17.182;-96.766;2023-05-14T03:52:23;27.40;53.40
44517;DHT22;30223;17.182;-96.766;2023-05-14T03:54:49;27.40;53.40
44517;DHT22;30223;17.182;-96.766;2023-05-14T03:57:16;27.40;53.40
44517;DHT22;30223;17.182;-96.766;2023-05-14T03:59:43;27.40;53.50
44517;DHT22;30223;17.182;-96.766;2023-05-14T04:02:10;27.30;53.40
44517;DHT22;30223;17.182;-96.766;2023-05-14T04:04:36;27.30;53.50
44517;DHT22;30223;17.182;-96.766;2023-05-14T04:07:03;27.30;53.50
44517;DHT22;30223;17.182;-96.766;2023-05-14T04:09:30;27.30;53.40
44517;DHT22;30223;17.182;-96.766;2023-05-14T04:11:57;27.30;53.50
44517;DHT22;30223;17.182;-96.766;2023-05-14T04:14:23;27.20;53.40
44517;DHT22;30223;17.182;-96.766;2023-05-14T04:16:50;27.20;53.40
44517;DHT22;30223;17.182;-96.766;2023-05-14T04:19:17;27.20;53.50
44517;DHT22;30223;17.182;-96.766;2023-05-14T04:21:43;27.10;53.40
44517;DHT22;30223;17.182;-96.766;2023-05-14T04:24:10;27.10;53.40
44517;DHT22;30223;17.182;-96.766;2023-05-14T04:26:37;27.10;53.50
44517;DHT22;30223;17.182;-96.766;2023-05-14T04:29:04;27.10;53.40
44517;DHT22;30223;17.182;-96.766;2023-05-14T04:31:31;27.10;53.50
44517;DHT22;30223;17.182;-96.766;2023-05-14T04:33:57;27.00;53.40
44517;DHT22;30223;17.182;-96.766;2023-05-14T04:36:24;27.00;53.50
44517;DHT22;30223;17.182;-96.766;2023-05-14T04:38:51;27.00;53.50
44517;DHT22;30223;17.182;-96.766;2023-05-14T04:41:18;27.00;53.50
44517;DHT22;30223;17.182;-96.766;2023-05-14T04:43:45;26.90;53.50
44517;DHT22;30223;17.182;-96.766;2023-05-14T04:46:12;26.90;53.40
44517;DHT22;30223;17.182;-96.766;2023-05-14T04:48:39;26.90;53.50
44517;DHT22;30223;17.182;-96.766;2023-05-14T04:51:06;26.90;53.50
44517;DHT22;30223;17.182;-96.766;2023-05-14T04:53:32;26.90;53.50
44517;DHT22;30223;17.182;-96.766;2023-05-14T04:55:59;26.90;53.50
44517;DHT22;30223;17.182;-96.766;2023-05-14T04:58:26;26.80;53.50
44517;DHT22;30223;17.182;-96.766;2023-05-14T05:00:54;26.80;53.50
44517;DHT22;30223;17.182;-96.766;2023-05-14T05:03:21;26.80;53.50
44517;DHT22;30223;17.182;-96.766;2023-05-14T05:05:47;26.70;53.40
44517;DHT22;30223;17.182;-96.766;2023-05-14T05:08:14;26.70;53.40
44517;DHT22;30223;17.182;-96.766;2023-05-14T05:10:41;26.70;53.40
44517;DHT22;30223;17.182;-96.766;2023-05-14T05:13:07;26.70;53.40
44517;DHT22;30223;17.182;-96.766;2023-05-14T05:15:34;26.70;53.40
44517;DHT22;30223;17.182;-96.766;2023-05-14T05:18:01;26.70;53.40
44517;DHT22;30223;17.182;-96.766;2023-05-14T05:20:28;26.60;53.40
44517;DHT22;30223;17.182;-96.766;2023-05-14T05:22:54;26.60;53.40
44517;DHT22;30223;17.182;-96.766;2023-05-14T05:25:22;26.60;53.40
44517;DHT22;30223;17.182;-96.766;2023-05-14T05:27:48;26.60;53.40
44517;DHT22;30223;17.182;-96.766;2023-05-14T05:30:15;26.60;53.40
44517;DHT22;30223;17.182;-96.766;2023-05-14T05:32:42;26.50;53.30
44517;DHT22;30223;17.182;-96.766;2023-05-14T05:35:09;26.50;53.30
44517;DHT22;30223;17.182;-96.766;2023-05-14T05:37:36;26.40;53.20
44517;DHT22;30223;17.182;-96.766;2023-05-14T05:40:03;26.50;53.30
44517;DHT22;30223;17.182;-96.766;2023-05-14T05:42:31;26.40;53.20
44517;DHT22;30223;17.182;-96.766;2023-05-14T05:44:57;26.40;53.20
44517;DHT22;30223;17.182;-96.766;2023-05-14T05:47:24;26.40;53.30
44517;DHT22;30223;17.182;-96.766;2023-05-14T05:49:51;26.40;53.20
44517;DHT22;30223;17.182;-96.766;2023-05-14T05:52:19;26.40;53.20
44517;DHT22;30223;17.182;-96.766;2023-05-14T05:54:45;26.40;53.30
44517;DHT22;30223;17.182;-96.766;2023-05-14T05:57:12;26.30;53.20
44517;DHT22;30223;17.182;-96.766;2023-05-14T05:59:39;26.30;53.20
44517;DHT22;30223;17.182;-96.766;2023-05-14T06:02:06;26.30;53.10
44517;DHT22;30223;17.182;-96.766;2023-05-14T06:04:32;26.30;53.20
44517;DHT22;30223;17.182;-96.766;2023-05-14T06:06:59;26.30;53.20
44517;DHT22;30223;17.182;-96.766;2023-05-14T06:09:26;26.20;53.10
44517;DHT22;30223;17.182;-96.766;2023-05-14T06:11:52;26.20;53.00
44517;DHT22;30223;17.182;-96.766;2023-05-14T06:14:22;26.20;53.00
44517;DHT22;30223;17.182;-96.766;2023-05-14T06:16:49;26.20;53.00
44517;DHT22;30223;17.182;-96.766;2023-05-14T06:19:16;26.20;53.00
44517;DHT22;30223;17.182;-96.766;2023-05-14T06:21:43;26.10;53.00
44517;DHT22;30223;17.182;-96.766;2023-05-14T06:24:10;26.10;52.90
44517;DHT22;30223;17.182;-96.766;2023-05-14T06:26:36;26.10;53.60
44517;DHT22;30223;17.182;-96.766;2023-05-14T06:29:03;26.10;52.90
44517;DHT22;30223;17.182;-96.766;2023-05-14T06:31:30;26.10;52.90
44517;DHT22;30223;17.182;-96.766;2023-05-14T06:33:57;26.00;52.90
44517;DHT22;30223;17.182;-96.766;2023-05-14T06:36:23;26.00;52.80
44517;DHT22;30223;17.182;-96.766;2023-05-14T06:38:50;26.00;52.80
44517;DHT22;30223;17.182;-96.766;2023-05-14T06:41:17;26.00;52.80
44517;DHT22;30223;17.182;-96.766;2023-05-14T06:43:43;26.00;52.80
44517;DHT22;30223;17.182;-96.766;2023-05-14T06:46:10;25.90;53.30
44517;DHT22;30223;17.182;-96.766;2023-05-14T06:48:37;25.90;52.80
44517;DHT22;30223;17.182;-96.766;2023-05-14T06:51:04;25.90;52.80
44517;DHT22;30223;17.182;-96.766;2023-05-14T06:53:31;25.90;52.70
44517;DHT22;30223;17.182;-96.766;2023-05-14T06:55:58;25.90;52.70
44517;DHT22;30223;17.182;-96.766;2023-05-14T06:58:24;25.90;52.70
44517;DHT22;30223;17.182;-96.766;2023-05-14T07:00:51;25.90;52.70
44517;DHT22;30223;17.182;-96.766;2023-05-14T07:03:18;25.80;52.70
44517;DHT22;30223;17.182;-96.766;2023-05-14T07:05:45;25.80;52.70
44517;DHT22;30223;17.182;-96.766;2023-05-14T07:08:12;25.80;52.70
44517;DHT22;30223;17.182;-96.766;2023-05-14T07:10:39;25.70;52.60
44517;DHT22;30223;17.182;-96.766;2023-05-14T07:13:06;25.70;52.60
44517;DHT22;30223;17.182;-96.766;2023-05-14T07:15:33;25.70;52.60
44517;DHT22;30223;17.182;-96.766;2023-05-14T07:18:00;25.70;52.60
44517;DHT22;30223;17.182;-96.766;2023-05-14T07:20:26;25.70;52.60
44517;DHT22;30223;17.182;-96.766;2023-05-14T07:22:53;25.70;52.60
44517;DHT22;30223;17.182;-96.766;2023-05-14T07:25:22;25.60;52.50
44517;DHT22;30223;17.182;-96.766;2023-05-14T07:27:49;25.60;52.60
44517;DHT22;30223;17.182;-96.766;2023-05-14T07:30:16;25.60;52.60
44517;DHT22;30223;17.182;-96.766;2023-05-14T07:32:42;25.60;52.60
44517;DHT22;30223;17.182;-96.766;2023-05-14T07:35:09;25.60;52.60
44517;DHT22;30223;17.182;-96.766;2023-05-14T07:37:37;25.50;52.50
44517;DHT22;30223;17.182;-96.766;2023-05-14T07:40:04;25.50;52.50
44517;DHT22;30223;17.182;-96.766;2023-05-14T07:42:31;25.50;52.50
44517;DHT22;30223;17.182;-96.766;2023-05-14T07:44:58;25.50;52.50
44517;DHT22;30223;17.182;-96.766;2023-05-14T07:47:24;25.50;52.50
44517;DHT22;30223;17.182;-96.766;2023-05-14T07:49:55;25.40;52.50
44517;DHT22;30223;17.182;-96.766;2023-05-14T07:52:23;25.40;53.10
44517;DHT22;30223;17.182;-96.766;2023-05-14T07:54:50;25.40;52.60
44517;DHT22;30223;17.182;-96.766;2023-05-14T07:57:18;25.30;52.50
44517;DHT22;30223;17.182;-96.766;2023-05-14T07:59:46;25.30;52.50
44517;DHT22;30223;17.182;-96.766;2023-05-14T08:02:12;25.30;52.50
44517;DHT22;30223;17.182;-96.766;2023-05-14T08:04:41;25.30;52.50
44517;DHT22;30223;17.182;-96.766;2023-05-14T08:07:08;25.30;52.50
44517;DHT22;30223;17.182;-96.766;2023-05-14T08:09:35;25.30;52.50
44517;DHT22;30223;17.182;-96.766;2023-05-14T08:12:02;25.30;52.50
44517;DHT22;30223;17.182;-96.766;2023-05-14T08:14:28;25.20;52.40
44517;DHT22;30223;17.182;-96.766;2023-05-14T08:16:55;25.20;52.40
44517;DHT22;30223;17.182;-96.766;2023-05-14T08:19:22;25.20;52.40
44517;DHT22;30223;17.182;-96.766;2023-05-14T08:21:49;25.20;52.40
44517;DHT22;30223;17.182;-96.766;2023-05-14T08:24:17;25.10;52.40
44517;DHT22;30223;17.182;-96.766;2023-05-14T08:26:44;25.10;52.40
44517;DHT22;30223;17.182;-96.766;2023-05-14T08:29:11;25.10;52.40
44517;DHT22;30223;17.182;-96.766;2023-05-14T08:31:39;25.10;52.40
44517;DHT22;30223;17.182;-96.766;2023-05-14T08:34:06;25.10;52.40
44517;DHT22;30223;17.182;-96.766;2023-05-14T08:36:32;25.10;52.40
44517;DHT22;30223;17.182;-96.766;2023-05-14T08:38:59;25.10;52.40
44517;DHT22;30223;17.182;-96.766;2023-05-14T08:41:26;25.10;52.40
44517;DHT22;30223;17.182;-96.766;2023-05-14T08:44:12;25.00;52.40
44517;DHT22;30223;17.182;-96.766;2023-05-14T08:46:39;25.00;52.30
44517;DHT22;30223;17.182;-96.766;2023-05-14T08:51:59;25.00;52.40
44517;DHT22;30223;17.182;-96.766;2023-05-14T08:54:26;25.00;52.30
44517;DHT22;30223;17.182;-96.766;2023-05-14T08:56:54;25.00;52.30
44517;DHT22;30223;17.182;-96.766;2023-05-14T08:59:20;24.90;52.30
44517;DHT22;30223;17.182;-96.766;2023-05-14T09:01:50;24.90;52.30
44517;DHT22;30223;17.182;-96.766;2023-05-14T09:04:20;24.90;52.30
44517;DHT22;30223;17.182;-96.766;2023-05-14T09:06:49;24.90;52.30
44517;DHT22;30223;17.182;-96.766;2023-05-14T09:09:16;24.80;52.20
44517;DHT22;30223;17.182;-96.766;2023-05-14T09:11:47;24.80;52.30
44517;DHT22;30223;17.182;-96.766;2023-05-14T09:14:14;24.80;52.20
44517;DHT22;30223;17.182;-96.766;2023-05-14T09:16:44;24.80;52.30
44517;DHT22;30223;17.182;-96.766;2023-05-14T09:19:15;24.80;52.30
44517;DHT22;30223;17.182;-96.766;2023-05-14T09:21:48;24.80;52.30
44517;DHT22;30223;17.182;-96.766;2023-05-14T09:24:19;24.80;52.30
44517;DHT22;30223;17.182;-96.766;2023-05-14T09:26:50;24.80;52.30
44517;DHT22;30223;17.182;-96.766;2023-05-14T09:29:17;24.70;52.20
44517;DHT22;30223;17.182;-96.766;2023-05-14T09:31:45;24.70;52.30
44517;DHT22;30223;17.182;-96.766;2023-05-14T09:34:25;24.70;52.20
44517;DHT22;30223;17.182;-96.766;2023-05-14T09:37:06;24.70;52.20
44517;DHT22;30223;17.182;-96.766;2023-05-14T09:39:35;24.70;52.20
44517;DHT22;30223;17.182;-96.766;2023-05-14T09:42:02;24.70;52.30
44517;DHT22;30223;17.182;-96.766;2023-05-14T09:44:29;24.60;52.20
44517;DHT22;30223;17.182;-96.766;2023-05-14T09:46:57;24.60;52.20
44517;DHT22;30223;17.182;-96.766;2023-05-14T09:49:23;24.60;52.20
44517;DHT22;30223;17.182;-96.766;2023-05-14T09:51:53;24.60;52.20
44517;DHT22;30223;17.182;-96.766;2023-05-14T09:54:23;24.60;52.20
44517;DHT22;30223;17.182;-96.766;2023-05-14T09:56:50;24.60;52.20
44517;DHT22;30223;17.182;-96.766;2023-05-14T09:59:17;24.60;52.10
44517;DHT22;30223;17.182;-96.766;2023-05-14T10:01:43;24.60;52.10
44517;DHT22;30223;17.182;-96.766;2023-05-14T10:04:11;24.50;52.10
44517;DHT22;30223;17.182;-96.766;2023-05-14T10:06:39;24.60;52.20
44517;DHT22;30223;17.182;-96.766;2023-05-14T10:09:12;24.50;52.10
44517;DHT22;30223;17.182;-96.766;2023-05-14T10:11:42;24.50;52.10
44517;DHT22;30223;17.182;-96.766;2023-05-14T10:14:23;24.50;52.10
44517;DHT22;30223;17.182;-96.766;2023-05-14T10:16:52;24.50;52.10
44517;DHT22;30223;17.182;-96.766;2023-05-14T10:19:23;24.50;52.10
44517;DHT22;30223;17.182;-96.766;2023-05-14T10:21:56;24.50;52.10
44517;DHT22;30223;17.182;-96.766;2023-05-14T10:24:24;24.50;52.00
44517;DHT22;30223;17.182;-96.766;2023-05-14T10:26:51;24.40;52.00
44517;DHT22;30223;17.182;-96.766;2023-05-14T10:29:18;24.50;52.00
44517;DHT22;30223;17.182;-96.766;2023-05-14T10:34:33;24.40;52.00
44517;DHT22;30223;17.182;-96.766;2023-05-14T10:37:03;24.40;52.00
44517;DHT22;30223;17.182;-96.766;2023-05-14T10:39:44;24.40;52.00
44517;DHT22;30223;17.182;-96.766;2023-05-14T10:42:16;24.30;52.00
44517;DHT22;30223;17.182;-96.766;2023-05-14T10:44:53;24.40;52.00
44517;DHT22;30223;17.182;-96.766;2023-05-14T10:47:22;24.30;52.00
44517;DHT22;30223;17.182;-96.766;2023-05-14T10:49:51;24.30;52.00
44517;DHT22;30223;17.182;-96.766;2023-05-14T10:52:18;24.30;51.90
44517;DHT22;30223;17.182;-96.766;2023-05-14T10:54:59;24.30;52.00
44517;DHT22;30223;17.182;-96.766;2023-05-14T10:57:29;24.30;51.90
44517;DHT22;30223;17.182;-96.766;2023-05-14T10:59:58;24.30;51.90
44517;DHT22;30223;17.182;-96.766;2023-05-14T11:02:30;24.30;51.90
44517;DHT22;30223;17.182;-96.766;2023-05-14T11:05:11;24.30;51.90
44517;DHT22;30223;17.182;-96.766;2023-05-14T11:07:40;24.30;51.90
44517;DHT22;30223;17.182;-96.766;2023-05-14T11:10:12;24.20;51.80
44517;DHT22;30223;17.182;-96.766;2023-05-14T11:12:43;24.20;51.90
44517;DHT22;30223;17.182;-96.766;2023-05-14T11:15:15;24.20;51.80
44517;DHT22;30223;17.182;-96.766;2023-05-14T11:17:43;24.20;51.80
44517;DHT22;30223;17.182;-96.766;2023-05-14T11:20:11;24.20;51.80
44517;DHT22;30223;17.182;-96.766;2023-05-14T11:22:39;24.20;51.90
44517;DHT22;30223;17.182;-96.766;2023-05-14T11:25:07;24.20;51.90
44517;DHT22;30223;17.182;-96.766;2023-05-14T11:27:38;24.20;51.80
44517;DHT22;30223;17.182;-96.766;2023-05-14T11:30:11;24.10;51.80
44517;DHT22;30223;17.182;-96.766;2023-05-14T11:32:38;24.10;51.80
44517;DHT22;30223;17.182;-96.766;2023-05-14T11:35:06;24.10;51.80
44517;DHT22;30223;17.182;-96.766;2023-05-14T11:37:33;24.10;51.80
44517;DHT22;30223;17.182;-96.766;2023-05-14T11:40:00;24.10;51.80
44517;DHT22;30223;17.182;-96.766;2023-05-14T11:42:27;24.10;51.80
44517;DHT22;30223;17.182;-96.766;2023-05-14T11:44:54;24.10;51.80
44517;DHT22;30223;17.182;-96.766;2023-05-14T11:47:21;24.00;51.70
44517;DHT22;30223;17.182;-96.766;2023-05-14T11:49:49;24.00;51.70
44517;DHT22;30223;17.182;-96.766;2023-05-14T11:52:16;24.00;51.70
44517;DHT22;30223;17.182;-96.766;2023-05-14T11:54:44;24.00;51.80
44517;DHT22;30223;17.182;-96.766;2023-05-14T11:57:15;24.00;51.80
44517;DHT22;30223;17.182;-96.766;2023-05-14T11:59:42;24.00;51.70
44517;DHT22;30223;17.182;-96.766;2023-05-14T12:02:11;23.90;51.70
44517;DHT22;30223;17.182;-96.766;2023-05-14T12:04:39;23.90;51.70
44517;DHT22;30223;17.182;-96.766;2023-05-14T12:07:10;23.90;51.70
44517;DHT22;30223;17.182;-96.766;2023-05-14T12:09:40;23.90;51.70
44517;DHT22;30223;17.182;-96.766;2023-05-14T12:12:11;23.90;51.70
44517;DHT22;30223;17.182;-96.766;2023-05-14T12:14:41;23.80;51.70
44517;DHT22;30223;17.182;-96.766;2023-05-14T12:17:16;23.80;51.70
44517;DHT22;30223;17.182;-96.766;2023-05-14T12:19:44;23.80;51.70
44517;DHT22;30223;17.182;-96.766;2023-05-14T12:22:14;23.80;51.70
44517;DHT22;30223;17.182;-96.766;2023-05-14T12:24:42;23.80;51.70
44517;DHT22;30223;17.182;-96.766;2023-05-14T12:27:10;23.80;51.70
44517;DHT22;30223;17.182;-96.766;2023-05-14T12:29:38;23.80;51.70
44517;DHT22;30223;17.182;-96.766;2023-05-14T12:32:08;23.80;51.70
44517;DHT22;30223;17.182;-96.766;2023-05-14T12:34:37;23.80;51.70
44517;DHT22;30223;17.182;-96.766;2023-05-14T12:37:05;23.70;51.70
44517;DHT22;30223;17.182;-96.766;2023-05-14T12:39:32;23.70;51.70
44517;DHT22;30223;17.182;-96.766;2023-05-14T12:42:00;23.70;51.70
44517;DHT22;30223;17.182;-96.766;2023-05-14T12:44:27;23.70;51.70
44517;DHT22;30223;17.182;-96.766;2023-05-14T12:46:54;23.70;51.70
44517;DHT22;30223;17.182;-96.766;2023-05-14T12:49:21;23.70;51.60
44517;DHT22;30223;17.182;-96.766;2023-05-14T12:51:47;23.60;51.60
44517;DHT22;30223;17.182;-96.766;2023-05-14T12:54:14;23.60;51.70
44517;DHT22;30223;17.182;-96.766;2023-05-14T12:56:41;23.60;51.70
44517;DHT22;30223;17.182;-96.766;2023-05-14T12:59:08;23.60;51.70
44517;DHT22;30223;17.182;-96.766;2023-05-14T13:01:35;23.60;51.70
44517;DHT22;30223;17.182;-96.766;2023-05-14T13:04:04;23.60;51.70
44517;DHT22;30223;17.182;-96.766;2023-05-14T13:06:31;23.60;51.70
44517;DHT22;30223;17.182;-96.766;2023-05-14T13:08:58;23.60;51.70
44517;DHT22;30223;17.182;-96.766;2023-05-14T13:11:27;23.50;51.70
44517;DHT22;30223;17.182;-96.766;2023-05-14T13:13:55;23.50;51.60
44517;DHT22;30223;17.182;-96.766;2023-05-14T13:16:22;23.50;51.70
44517;DHT22;30223;17.182;-96.766;2023-05-14T13:18:48;23.50;51.70
44517;DHT22;30223;17.182;-96.766;2023-05-14T13:21:18;23.50;51.70
44517;DHT22;30223;17.182;-96.766;2023-05-14T13:23:46;23.50;51.70
44517;DHT22;30223;17.182;-96.766;2023-05-14T13:26:13;23.40;51.60
44517;DHT22;30223;17.182;-96.766;2023-05-14T13:28:40;23.40;51.70
44517;DHT22;30223;17.182;-96.766;2023-05-14T13:31:11;23.40;51.70
44517;DHT22;30223;17.182;-96.766;2023-05-14T13:33:41;23.40;51.70
44517;DHT22;30223;17.182;-96.766;2023-05-14T13:36:10;23.40;51.70
44517;DHT22;30223;17.182;-96.766;2023-05-14T13:38:37;23.40;51.70
44517;DHT22;30223;17.182;-96.766;2023-05-14T13:41:04;23.40;51.70
44517;DHT22;30223;17.182;-96.766;2023-05-14T13:43:33;23.40;51.80
44517;DHT22;30223;17.182;-96.766;2023-05-14T13:46:01;23.40;51.70
44517;DHT22;30223;17.182;-96.766;2023-05-14T13:48:28;23.40;51.70
44517;DHT22;30223;17.182;-96.766;2023-05-14T13:50:56;23.30;51.70
44517;DHT22;30223;17.182;-96.766;2023-05-14T13:53:24;23.30;51.70
44517;DHT22;30223;17.182;-96.766;2023-05-14T13:55:51;23.40;51.70
44517;DHT22;30223;17.182;-96.766;2023-05-14T13:58:26;23.30;51.70
44517;DHT22;30223;17.182;-96.766;2023-05-14T14:00:53;23.30;51.70
44517;DHT22;30223;17.182;-96.766;2023-05-14T14:03:20;23.30;51.70
44517;DHT22;30223;17.182;-96.766;2023-05-14T14:05:47;23.30;51.70
44517;DHT22;30223;17.182;-96.766;2023-05-14T14:08:16;23.30;51.70
44517;DHT22;30223;17.182;-96.766;2023-05-14T14:10:43;23.30;51.70
44517;DHT22;30223;17.182;-96.766;2023-05-14T14:13:09;23.30;51.70
44517;DHT22;30223;17.182;-96.766;2023-05-14T14:15:37;23.30;51.60
44517;DHT22;30223;17.182;-96.766;2023-05-14T14:18:03;23.30;51.70
44517;DHT22;30223;17.182;-96.766;2023-05-14T14:20:33;23.30;51.70
44517;DHT22;30223;17.182;-96.766;2023-05-14T14:23:00;23.30;51.70
44517;DHT22;30223;17.182;-96.766;2023-05-14T14:25:27;23.30;51.70
44517;DHT22;30223;17.182;-96.766;2023-05-14T14:27:53;23.30;51.70
44517;DHT22;30223;17.182;-96.766;2023-05-14T14:30:20;23.30;51.70
44517;DHT22;30223;17.182;-96.766;2023-05-14T14:32:48;23.30;51.70
44517;DHT22;30223;17.182;-96.766;2023-05-14T14:35:16;23.30;51.70
44517;DHT22;30223;17.182;-96.766;2023-05-14T14:37:43;23.30;51.70
44517;DHT22;30223;17.182;-96.766;2023-05-14T14:40:15;23.30;51.70
44517;DHT22;30223;17.182;-96.766;2023-05-14T14:42:42;23.30;51.70
44517;DHT22;30223;17.182;-96.766;2023-05-14T14:45:09;23.30;51.70
44517;DHT22;30223;17.182;-96.766;2023-05-14T14:47:36;23.30;51.70
44517;DHT22;30223;17.182;-96.766;2023-05-14T14:50:03;23.30;51.70
44517;DHT22;30223;17.182;-96.766;2023-05-14T14:52:31;23.30;51.70
44517;DHT22;30223;17.182;-96.766;2023-05-14T14:54:57;23.30;51.70
44517;DHT22;30223;17.182;-96.766;2023-05-14T14:57:24;23.30;51.70
44517;DHT22;30223;17.182;-96.766;2023-05-14T14:59:51;23.30;51.70
44517;DHT22;30223;17.182;-96.766;2023-05-14T15:02:19;23.30;51.60
44517;DHT22;30223;17.182;-96.766;2023-05-14T15:04:46;23.30;51.60
44517;DHT22;30223;17.182;-96.766;2023-05-14T15:07:13;23.30;51.60
44517;DHT22;30223;17.182;-96.766;2023-05-14T15:09:43;23.30;51.60
44517;DHT22;30223;17.182;-96.766;2023-05-14T15:12:11;23.40;51.70
44517;DHT22;30223;17.182;-96.766;2023-05-14T15:14:39;23.30;51.70
44517;DHT22;30223;17.182;-96.766;2023-05-14T15:17:06;23.40;51.70
44517;DHT22;30223;17.182;-96.766;2023-05-14T15:19:32;23.30;51.70